Time;durP1;ratioP1;P1;durP2;ratioP2;P2;SDS_P1;SDS_P2;PMS_P1;PMS_P2;Temp;Humidity;BMP_temperature;BMP_pressure;BME280_temperature;BME280_humidity;BME280_pressure;Samples;Min_cycle;Max_cycle;Signal;HPM_P1;HPM_P2
2021/11/27 00:02:10;;;;;;;2.27;2.00;;;7.00;99.90;;;;;;5031121;28;20257;-56
2021/11/27 00:04:36;;;;;;;5.60;2.10;;;6.90;99.90;;;;;;5031481;28;20207;-55
2021/11/27 00:07:03;;;;;;;2.90;2.30;;;7.00;99.90;;;;;;5033977;28;20206;-55
2021/11/27 00:09:30;;;;;;;3.70;2.40;;;6.90;99.90;;;;;;5035029;28;20210;-55
2021/11/27 00:11:57;;;;;;;3.10;2.30;;;6.90;99.90;;;;;;5034443;28;20690;-55
2021/11/27 00:14:23;;;;;;;3.30;2.47;;;6.80;99.90;;;;;;5035011;28;20587;-55
2021/11/27 00:16:50;;;;;;;3.00;2.10;;;6.70;99.90;;;;;;5034844;28;20206;-54
2021/11/27 00:19:18;;;;;;;2.83;2.20;;;6.80;99.90;;;;;;5035189;28;20206;-55
2021/11/27 00:21:45;;;;;;;4.87;2.50;;;6.70;99.90;;;;;;5034513;28;20629;-55
2021/11/27 00:24:12;;;;;;;2.60;2.20;;;6.80;99.90;;;;;;5035006;28;20211;-55
2021/11/27 00:26:39;;;;;;;2.83;2.13;;;6.80;99.90;;;;;;5034561;28;20214;-57
2021/11/27 00:29:07;;;;;;;2.83;2.20;;;6.80;99.90;;;;;;5034703;28;20206;-55
2021/11/27 00:31:39;;;;;;;1.93;1.73;;;6.70;99.90;;;;;;5034277;28;20210;-55
2021/11/27 00:34:05;;;;;;;2.43;1.93;;;6.80;99.90;;;;;;5034436;28;20210;-55
2021/11/27 00:36:34;;;;;;;2.73;1.93;;;6.80;99.90;;;;;;5034310;28;20206;-55
2021/11/27 00:39:01;;;;;;;2.87;1.80;;;6.80;99.90;;;;;;5034241;28;20728;-54
2021/11/27 00:41:28;;;;;;;2.97;1.80;;;6.80;99.90;;;;;;5034119;28;20206;-55
2021/11/27 00:43:55;;;;;;;2.53;2.00;;;6.70;99.90;;;;;;5034172;28;20701;-54
2021/11/27 00:46:22;;;;;;;2.17;1.77;;;6.60;99.90;;;;;;5034242;28;20264;-56
2021/11/27 00:48:49;;;;;;;4.73;2.23;;;6.50;99.90;;;;;;5034157;28;20211;-55
2021/11/27 00:51:17;;;;;;;2.73;2.03;;;6.50;99.90;;;;;;5033821;28;20583;-54
2021/11/27 00:53:46;;;;;;;3.40;1.80;;;6.60;99.90;;;;;;5034126;28;20276;-55
2021/11/27 00:56:14;;;;;;;3.10;2.20;;;6.60;99.90;;;;;;5034121;28;20214;-55
2021/11/27 00:58:41;;;;;;;3.53;2.27;;;6.60;99.90;;;;;;5034068;28;20203;-55
2021/11/27 01:01:13;;;;;;;2.50;1.97;;;6.70;99.90;;;;;;5034204;28;20209;-55
2021/11/27 01:03:41;;;;;;;2.33;2.07;;;6.70;99.90;;;;;;5033704;28;20230;-55
2021/11/27 01:06:10;;;;;;;6.30;2.20;;;6.70;99.90;;;;;;5033877;28;20265;-54
2021/11/27 01:08:37;;;;;;;3.43;2.17;;;6.80;99.90;;;;;;5034046;28;20674;-55
2021/11/27 01:11:08;;;;;;;2.73;2.00;;;6.80;99.90;;;;;;5033702;28;20210;-54
2021/11/27 01:13:37;;;;;;;5.00;2.57;;;6.80;99.90;;;;;;5033590;28;20229;-55
2021/11/27 01:16:04;;;;;;;4.83;3.20;;;6.80;99.90;;;;;;5033622;28;20583;-54
2021/11/27 01:18:32;;;;;;;5.37;2.43;;;6.80;99.90;;;;;;5033808;28;20210;-55
2021/11/27 01:21:03;;;;;;;2.40;2.10;;;6.90;99.90;;;;;;5033332;28;20248;-55
2021/11/27 01:23:30;;;;;;;3.17;2.30;;;7.00;99.90;;;;;;5033598;28;20649;-54
2021/11/27 01:25:57;;;;;;;3.90;2.30;;;7.00;99.90;;;;;;5033595;28;20206;-54
2021/11/27 01:28:26;;;;;;;5.13;2.30;;;7.10;99.90;;;;;;5033434;28;20214;-55
2021/11/27 01:30:56;;;;;;;3.50;2.70;;;7.10;99.90;;;;;;5033117;28;20203;-55
2021/11/27 01:33:23;;;;;;;3.03;2.27;;;7.10;99.90;;;;;;5033289;28;20226;-56
2021/11/27 01:35:51;;;;;;;4.53;2.60;;;7.20;99.90;;;;;;5033434;28;20203;-54
2021/11/27 01:38:18;;;;;;;3.70;2.37;;;7.20;99.90;;;;;;5033319;28;20210;-55
2021/11/27 01:40:46;;;;;;;3.60;2.83;;;7.10;99.90;;;;;;5033081;28;20647;-54
2021/11/27 01:43:13;;;;;;;3.27;2.70;;;7.20;99.90;;;;;;5032944;28;20230;-56
2021/11/27 01:45:42;;;;;;;2.87;2.00;;;7.00;99.90;;;;;;5033075;28;20674;-55
2021/11/27 01:48:10;;;;;;;3.23;2.20;;;7.00;99.90;;;;;;5033378;28;20209;-55
2021/11/27 01:50:41;;;;;;;2.77;2.40;;;6.90;99.90;;;;;;5032919;28;20206;-56
2021/11/27 01:53:08;;;;;;;3.13;2.07;;;6.90;99.90;;;;;;5032951;28;20222;-55
2021/11/27 01:55:35;;;;;;;4.33;2.33;;;6.90;99.90;;;;;;5032866;28;20297;-55
2021/11/27 01:58:02;;;;;;;3.37;2.63;;;6.90;99.90;;;;;;5033107;28;20213;-55
2021/11/27 02:00:37;;;;;;;4.27;2.50;;;6.90;99.90;;;;;;5032790;28;20210;-56
2021/11/27 02:03:05;;;;;;;2.93;2.10;;;6.90;99.90;;;;;;5032687;28;20221;-55
2021/11/27 02:05:32;;;;;;;3.03;2.20;;;7.00;99.90;;;;;;5032782;28;20229;-55
2021/11/27 02:08:01;;;;;;;2.70;2.10;;;7.10;99.90;;;;;;5032610;28;20678;-55
2021/11/27 02:10:28;;;;;;;14.93;11.57;;;7.20;99.90;;;;;;5032896;28;20206;-56
2021/11/27 02:12:55;;;;;;;3.53;2.60;;;7.20;99.90;;;;;;5032410;28;20718;-55
2021/11/27 02:15:22;;;;;;;3.10;2.00;;;7.20;99.90;;;;;;5032724;28;20341;-55
2021/11/27 02:17:50;;;;;;;2.90;2.03;;;7.30;99.90;;;;;;5032404;28;20285;-56
2021/11/27 02:20:19;;;;;;;2.60;1.93;;;7.30;99.90;;;;;;5032488;28;20624;-56
2021/11/27 02:22:47;;;;;;;3.57;2.30;;;7.30;99.90;;;;;;5032310;28;20644;-55
2021/11/27 02:25:16;;;;;;;2.10;1.90;;;7.30;99.90;;;;;;5032586;28;20286;-55
2021/11/27 02:27:45;;;;;;;2.77;2.20;;;7.20;99.90;;;;;;5032688;28;20210;-55
2021/11/27 02:30:13;;;;;;;2.13;1.93;;;7.20;99.90;;;;;;5032085;28;20209;-55
2021/11/27 02:32:40;;;;;;;3.47;2.20;;;7.30;99.90;;;;;;5032058;28;20280;-55
2021/11/27 02:35:08;;;;;;;2.63;2.00;;;7.40;99.90;;;;;;5032251;28;20233;-55
2021/11/27 02:37:35;;;;;;;2.80;1.93;;;7.30;99.90;;;;;;5032864;28;20210;-55
2021/11/27 02:40:04;;;;;;;2.87;2.30;;;7.40;99.90;;;;;;5032688;28;20206;-54
2021/11/27 02:42:31;;;;;;;2.80;2.10;;;7.40;99.90;;;;;;5032207;28;20229;-54
2021/11/27 02:44:58;;;;;;;2.10;1.53;;;7.30;99.90;;;;;;5032927;28;20777;-55
2021/11/27 02:47:25;;;;;;;2.57;1.80;;;7.40;99.90;;;;;;5032463;28;20627;-55
2021/11/27 02:49:52;;;;;;;2.90;1.93;;;7.30;99.90;;;;;;5032226;28;20210;-55
2021/11/27 02:52:20;;;;;;;3.07;2.03;;;7.30;99.90;;;;;;5031984;28;20226;-56
2021/11/27 02:54:47;;;;;;;2.70;2.10;;;7.30;99.90;;;;;;5032333;28;20211;-56
2021/11/27 02:57:15;;;;;;;2.37;1.83;;;7.30;99.90;;;;;;5032040;28;20232;-55
2021/11/27 02:59:42;;;;;;;2.37;2.00;;;7.30;99.90;;;;;;5032176;28;20202;-55
2021/11/27 03:02:09;;;;;;;2.80;2.20;;;7.30;99.90;;;;;;5031722;28;20229;-55
2021/11/27 03:04:37;;;;;;;2.67;1.87;;;7.10;99.90;;;;;;5031819;28;20307;-54
2021/11/27 03:07:06;;;;;;;3.00;2.10;;;7.20;99.90;;;;;;5032203;28;20210;-55
2021/11/27 03:09:33;;;;;;;2.43;2.10;;;7.20;99.90;;;;;;5031946;28;20205;-54
2021/11/27 03:12:01;;;;;;;2.60;1.70;;;7.30;99.90;;;;;;5031646;28;20261;-56
2021/11/27 03:14:30;;;;;;;2.20;1.87;;;7.20;99.90;;;;;;5031936;28;20238;-55
2021/11/27 03:16:58;;;;;;;2.27;1.80;;;7.20;99.90;;;;;;5031628;28;20202;-54
2021/11/27 03:19:25;;;;;;;2.07;1.77;;;7.20;99.90;;;;;;5031692;28;20210;-55
2021/11/27 03:21:52;;;;;;;2.33;1.80;;;7.20;99.90;;;;;;5031611;28;20206;-57
2021/11/27 03:24:18;;;;;;;2.93;2.17;;;7.30;99.90;;;;;;5031636;28;20706;-56
2021/11/27 03:26:45;;;;;;;3.13;2.03;;;7.30;99.90;;;;;;5031764;28;20479;-55
2021/11/27 03:29:13;;;;;;;2.20;2.00;;;7.20;99.90;;;;;;5031737;28;20238;-55
2021/11/27 03:31:41;;;;;;;4.30;1.83;;;7.10;99.90;;;;;;5031319;28;20206;-55
2021/11/27 03:34:08;;;;;;;2.27;1.77;;;7.20;99.90;;;;;;5031892;28;20229;-55
2021/11/27 03:36:34;;;;;;;1.90;1.70;;;7.20;99.90;;;;;;5031924;28;20214;-55
2021/11/27 03:39:01;;;;;;;2.27;2.00;;;7.30;99.90;;;;;;5031730;28;20230;-55
2021/11/27 03:41:28;;;;;;;2.53;1.90;;;7.20;99.90;;;;;;5033249;28;20209;-55
2021/11/27 03:43:55;;;;;;;2.93;2.13;;;7.20;99.90;;;;;;5035169;28;20233;-55
2021/11/27 03:46:22;;;;;;;2.37;1.87;;;7.20;99.90;;;;;;5035608;28;20211;-56
2021/11/27 03:48:54;;;;;;;2.87;1.77;;;7.20;99.90;;;;;;5035675;28;20210;-56
2021/11/27 03:51:22;;;;;;;2.37;1.80;;;7.30;99.90;;;;;;5035137;28;20207;-55
2021/11/27 03:53:50;;;;;;;3.50;1.80;;;7.30;99.90;;;;;;5035241;28;20249;-55
2021/11/27 03:56:19;;;;;;;4.43;2.00;;;7.30;99.90;;;;;;5035238;28;20210;-55
2021/11/27 03:58:46;;;;;;;2.33;1.70;;;7.30;99.90;;;;;;5035340;28;20494;-55
2021/11/27 04:01:17;;;;;;;2.77;1.53;;;7.30;99.90;;;;;;5034831;28;20260;-55
2021/11/27 04:03:48;;;;;;;1.93;1.60;;;7.30;99.90;;;;;;5035100;28;20261;-55
2021/11/27 04:06:16;;;;;;;3.23;1.70;;;7.30;99.90;;;;;;5035161;28;20245;-56
2021/11/27 04:08:43;;;;;;;2.13;1.70;;;7.30;99.90;;;;;;5034986;28;20217;-55
2021/11/27 04:11:10;;;;;;;1.90;1.60;;;7.30;99.90;;;;;;5034871;28;20210;-55
2021/11/27 04:13:37;;;;;;;2.47;1.30;;;7.30;99.90;;;;;;5034609;28;20744;-55
2021/11/27 04:16:05;;;;;;;2.03;1.50;;;7.10;99.90;;;;;;5034776;28;20702;-54
2021/11/27 04:18:32;;;;;;;2.57;1.50;;;7.10;99.90;;;;;;5034949;28;20206;-55
2021/11/27 04:20:59;;;;;;;2.37;1.20;;;7.10;99.90;;;;;;5034568;28;20206;-55
2021/11/27 04:23:28;;;;;;;2.17;1.17;;;7.10;99.90;;;;;;5034588;28;20230;-54
2021/11/27 04:25:54;;;;;;;2.00;1.33;;;7.10;99.90;;;;;;5034925;28;20268;-55
2021/11/27 04:28:21;;;;;;;2.00;1.60;;;7.00;99.90;;;;;;5034939;28;20622;-55
2021/11/27 04:30:48;;;;;;;1.47;1.07;;;7.00;99.90;;;;;;5034799;28;20206;-55
2021/11/27 04:33:15;;;;;;;1.43;1.27;;;6.90;99.90;;;;;;5034664;28;20249;-55
2021/11/27 04:35:42;;;;;;;1.90;1.50;;;6.90;99.90;;;;;;5034555;28;20666;-54
2021/11/27 04:38:09;;;;;;;2.00;1.30;;;6.90;99.90;;;;;;5034436;28;20213;-54
2021/11/27 04:40:38;;;;;;;1.20;0.97;;;6.90;99.90;;;;;;5034395;28;20218;-55
2021/11/27 04:43:05;;;;;;;1.80;1.40;;;6.90;99.90;;;;;;5033614;28;20282;-54
2021/11/27 04:45:33;;;;;;;1.43;1.33;;;6.90;99.90;;;;;;5034384;28;20241;-55
2021/11/27 04:48:01;;;;;;;1.67;0.97;;;6.90;99.90;;;;;;5034192;28;20210;-55
2021/11/27 04:50:29;;;;;;;1.70;1.30;;;7.00;99.90;;;;;;5034278;28;20210;-56
2021/11/27 04:52:57;;;;;;;1.10;0.90;;;6.90;99.90;;;;;;5033413;28;20226;-55
2021/11/27 04:55:24;;;;;;;0.90;0.80;;;6.90;99.90;;;;;;5034351;28;20234;-54
2021/11/27 04:57:52;;;;;;;2.60;1.30;;;6.90;99.90;;;;;;5034124;28;20210;-54
2021/11/27 05:00:22;;;;;;;1.50;1.00;;;6.90;99.90;;;;;;5033977;28;20206;-55
2021/11/27 05:02:49;;;;;;;1.10;0.80;;;6.90;99.90;;;;;;5033827;28;20230;-54
2021/11/27 05:05:16;;;;;;;0.93;0.87;;;6.90;99.90;;;;;;5033858;28;20245;-54
2021/11/27 05:07:43;;;;;;;1.23;1.13;;;6.90;99.90;;;;;;5034013;28;20206;-54
2021/11/27 05:10:11;;;;;;;1.60;1.10;;;6.90;99.90;;;;;;5034055;28;20242;-55
2021/11/27 05:12:38;;;;;;;1.13;0.83;;;7.10;99.90;;;;;;5057286;22;20230;-63
2021/11/27 05:15:08;;;;;;;1.80;1.00;;;7.20;99.90;;;;;;5034454;28;20202;-63
2021/11/27 05:17:34;;;;;;;1.23;0.80;;;7.20;99.90;;;;;;5034611;28;20209;-63
2021/11/27 05:20:01;;;;;;;2.60;0.93;;;7.10;99.90;;;;;;5034371;28;20210;-63
2021/11/27 05:22:28;;;;;;;1.20;0.80;;;7.20;99.90;;;;;;5034356;28;20706;-63
2021/11/27 05:24:54;;;;;;;1.27;1.03;;;7.10;99.90;;;;;;5034500;28;20233;-62
2021/11/27 05:27:22;;;;;;;1.70;1.00;;;7.00;99.90;;;;;;5035112;28;20217;-62
2021/11/27 05:29:50;;;;;;;1.20;0.97;;;7.10;99.90;;;;;;5037439;28;20206;-62
2021/11/27 05:32:25;;;;;;;1.20;1.00;;;7.20;99.90;;;;;;5036813;28;20829;-62
2021/11/27 05:34:52;;;;;;;1.07;0.93;;;7.30;99.90;;;;;;5035065;28;20202;-62
2021/11/27 05:37:19;;;;;;;1.43;1.10;;;7.40;99.90;;;;;;5034334;28;20210;-63
2021/11/27 05:39:47;;;;;;;1.33;1.10;;;7.40;99.90;;;;;;5034175;28;20297;-62
2021/11/27 05:42:15;;;;;;;1.00;0.80;;;7.30;99.90;;;;;;5033627;28;20206;-62
2021/11/27 05:44:43;;;;;;;2.63;1.27;;;7.30;99.90;;;;;;5034126;28;20226;-62
2021/11/27 05:47:10;;;;;;;1.77;1.00;;;7.30;99.90;;;;;;5035320;28;20628;-62
2021/11/27 05:49:38;;;;;;;1.43;0.90;;;7.30;99.90;;;;;;5034464;28;20213;-62
2021/11/27 05:52:06;;;;;;;1.00;0.90;;;7.20;99.90;;;;;;5033567;28;20206;-62
2021/11/27 05:54:33;;;;;;;0.83;0.60;;;7.20;99.90;;;;;;5034256;28;20209;-62
2021/11/27 05:56:59;;;;;;;1.77;0.93;;;7.20;99.90;;;;;;5034631;28;20202;-63
2021/11/27 05:59:26;;;;;;;1.00;0.80;;;7.20;99.90;;;;;;5033327;28;20210;-62
2021/11/27 06:01:53;;;;;;;1.53;0.80;;;7.20;99.90;;;;;;5033484;28;20210;-62
2021/11/27 06:04:19;;;;;;;1.27;1.00;;;7.20;99.90;;;;;;5033354;28;20717;-62
2021/11/27 06:06:47;;;;;;;1.17;0.80;;;7.20;99.90;;;;;;5033803;28;20268;-61
2021/11/27 06:09:14;;;;;;;1.57;0.80;;;7.10;99.90;;;;;;5035413;28;20206;-61
2021/11/27 06:11:42;;;;;;;1.53;1.00;;;7.10;99.90;;;;;;5034357;28;20202;-62
2021/11/27 06:14:09;;;;;;;0.70;0.60;;;7.10;99.90;;;;;;5035381;28;20261;-61
2021/11/27 06:16:36;;;;;;;1.30;0.80;;;7.10;99.90;;;;;;5034856;28;20219;-62
2021/11/27 06:19:02;;;;;;;1.93;1.27;;;7.10;99.90;;;;;;5034401;28;20210;-62
2021/11/27 06:21:29;;;;;;;1.07;0.80;;;6.90;99.90;;;;;;5033832;28;20206;-62
2021/11/27 06:23:58;;;;;;;1.80;1.20;;;6.90;99.90;;;;;;5033496;28;20287;-61
2021/11/27 06:26:25;;;;;;;1.93;0.70;;;7.00;99.90;;;;;;5034445;28;20217;-62
2021/11/27 06:28:52;;;;;;;1.83;1.30;;;7.10;99.90;;;;;;5033811;28;20210;-62
2021/11/27 06:31:19;;;;;;;1.60;1.00;;;7.10;99.90;;;;;;5033375;28;20214;-63
2021/11/27 06:33:46;;;;;;;1.10;0.90;;;7.20;99.90;;;;;;5034004;28;20226;-62
2021/11/27 06:36:12;;;;;;;1.50;1.10;;;7.30;99.90;;;;;;5033460;28;20214;-63
2021/11/27 06:38:39;;;;;;;1.60;1.17;;;7.30;99.90;;;;;;5033768;28;20678;-62
2021/11/27 06:41:07;;;;;;;1.73;1.20;;;7.30;99.90;;;;;;5032668;28;20217;-63
2021/11/27 06:43:34;;;;;;;1.17;1.00;;;7.20;99.90;;;;;;5032887;28;20639;-61
2021/11/27 06:46:01;;;;;;;2.10;0.90;;;7.20;99.90;;;;;;5033755;28;20646;-62
2021/11/27 06:48:28;;;;;;;2.23;1.20;;;7.30;99.90;;;;;;5033342;28;20688;-63
2021/11/27 06:50:55;;;;;;;2.80;1.60;;;7.20;99.90;;;;;;5032649;28;20294;-61
2021/11/27 06:53:22;;;;;;;2.37;1.53;;;7.30;99.90;;;;;;5032578;28;20233;-62
2021/11/27 06:55:48;;;;;;;2.20;1.60;;;7.20;99.90;;;;;;5032489;28;20405;-63
2021/11/27 06:58:16;;;;;;;1.33;1.13;;;7.30;99.90;;;;;;5033190;28;20562;-63
2021/11/27 07:00:43;;;;;;;1.87;1.23;;;7.30;99.90;;;;;;5032714;28;20582;-64
2021/11/27 07:03:10;;;;;;;1.93;1.40;;;7.30;99.90;;;;;;5033565;28;20276;-62
2021/11/27 07:05:36;;;;;;;1.10;0.80;;;7.30;99.90;;;;;;5033124;28;20255;-62
2021/11/27 07:08:03;;;;;;;4.23;1.10;;;7.20;99.90;;;;;;5033853;28;20213;-62
2021/11/27 07:10:30;;;;;;;1.00;0.90;;;7.20;99.90;;;;;;5033778;28;20673;-61
2021/11/27 07:12:59;;;;;;;1.03;0.90;;;7.20;99.90;;;;;;5033753;28;20234;-62
2021/11/27 07:15:27;;;;;;;3.70;2.53;;;7.10;99.90;;;;;;5036074;28;20234;-62
2021/11/27 07:17:54;;;;;;;1.50;1.20;;;7.20;99.90;;;;;;5037473;28;20214;-63
2021/11/27 07:20:21;;;;;;;1.80;1.30;;;7.20;99.90;;;;;;5037183;28;20673;-63
2021/11/27 07:22:48;;;;;;;1.67;1.20;;;7.20;99.90;;;;;;5036701;28;20321;-62
2021/11/27 07:25:14;;;;;;;1.20;1.00;;;7.20;99.90;;;;;;5037332;28;20237;-61
2021/11/27 07:27:41;;;;;;;2.23;1.10;;;7.20;99.90;;;;;;5036885;28;20207;-62
2021/11/27 07:30:09;;;;;;;1.17;1.00;;;7.20;99.90;;;;;;5038020;28;20217;-63
2021/11/27 07:32:37;;;;;;;1.30;1.10;;;7.30;99.90;;;;;;5036791;28;20234;-64
2021/11/27 07:35:05;;;;;;;1.07;0.70;;;7.40;99.90;;;;;;5036244;28;20198;-60
2021/11/27 07:37:31;;;;;;;1.13;0.90;;;7.40;99.90;;;;;;5035857;28;20670;-60
2021/11/27 07:39:58;;;;;;;1.30;1.00;;;7.50;99.90;;;;;;5035986;28;20210;-60
2021/11/27 07:42:25;;;;;;;3.93;3.17;;;7.60;99.90;;;;;;5035808;28;20231;-60
2021/11/27 07:44:51;;;;;;;2.03;1.07;;;7.60;99.90;;;;;;5036628;28;20304;-60
2021/11/27 07:47:18;;;;;;;1.63;1.13;;;7.70;99.90;;;;;;5035898;28;20284;-60
2021/11/27 07:49:46;;;;;;;1.37;1.03;;;7.70;99.90;;;;;;5036056;28;20210;-60
2021/11/27 07:52:13;;;;;;;1.13;1.00;;;7.60;99.90;;;;;;5035927;28;20232;-60
2021/11/27 07:54:40;;;;;;;1.17;0.93;;;7.60;99.90;;;;;;5036081;28;20290;-62
2021/11/27 07:57:07;;;;;;;1.20;0.83;;;7.60;99.90;;;;;;5035896;28;20210;-61
2021/11/27 07:59:35;;;;;;;1.83;1.20;;;7.50;99.90;;;;;;5036109;28;20211;-64
2021/11/27 08:02:02;;;;;;;1.90;1.30;;;7.60;99.90;;;;;;5036507;28;20281;-62
2021/11/27 08:04:29;;;;;;;1.87;1.17;;;7.70;99.90;;;;;;5036511;28;20226;-65
2021/11/27 08:06:57;;;;;;;1.60;1.00;;;7.70;99.90;;;;;;5036139;28;20203;-63
2021/11/27 08:09:24;;;;;;;1.53;1.20;;;7.70;99.90;;;;;;5036502;28;20210;-63
2021/11/27 08:11:51;;;;;;;3.43;2.03;;;7.60;99.90;;;;;;5035592;28;20685;-63
2021/11/27 08:14:18;;;;;;;1.43;0.90;;;7.50;99.90;;;;;;5035582;28;20233;-63
2021/11/27 08:16:45;;;;;;;1.50;1.17;;;7.50;99.90;;;;;;5036237;28;20212;-61
2021/11/27 08:19:11;;;;;;;1.10;0.87;;;7.50;99.90;;;;;;5036460;28;20202;-63
2021/11/27 08:21:38;;;;;;;1.10;0.70;;;7.50;99.90;;;;;;5036668;28;20217;-65
2021/11/27 08:24:07;;;;;;;1.47;0.80;;;7.40;99.90;;;;;;5036414;28;20732;-64
2021/11/27 08:26:33;;;;;;;1.20;0.73;;;7.40;99.90;;;;;;5036336;28;20206;-63
2021/11/27 08:29:00;;;;;;;1.20;0.80;;;7.40;99.90;;;;;;5034955;28;20210;-63
2021/11/27 08:31:27;;;;;;;3.57;2.33;;;7.40;99.90;;;;;;5034846;28;20214;-58
2021/11/27 08:33:54;;;;;;;3.47;3.17;;;7.30;99.90;;;;;;5034841;28;20230;-61
2021/11/27 08:36:21;;;;;;;9.40;7.03;;;7.30;99.90;;;;;;5034548;28;20659;-61
2021/11/27 08:38:48;;;;;;;1.40;1.20;;;7.40;99.90;;;;;;5034927;28;20207;-61
2021/11/27 08:41:16;;;;;;;1.73;1.00;;;7.50;99.90;;;;;;5034538;28;20210;-60
2021/11/27 08:43:43;;;;;;;2.63;0.97;;;7.50;99.90;;;;;;5034382;28;20229;-61
2021/11/27 08:46:09;;;;;;;3.67;1.20;;;7.30;99.90;;;;;;5034377;28;20234;-60
2021/11/27 08:48:37;;;;;;;0.80;0.70;;;7.20;99.90;;;;;;5034313;28;20209;-60
2021/11/27 08:51:05;;;;;;;1.10;0.90;;;7.10;99.90;;;;;;5034572;28;20297;-61
2021/11/27 08:53:32;;;;;;;1.73;0.90;;;7.30;99.90;;;;;;5034216;28;20234;-61
2021/11/27 08:55:59;;;;;;;1.23;0.93;;;7.40;99.90;;;;;;5034425;28;20206;-61
2021/11/27 08:58:27;;;;;;;1.33;1.10;;;7.50;99.90;;;;;;5034231;28;20210;-60
2021/11/27 09:00:54;;;;;;;1.10;1.00;;;7.60;99.90;;;;;;5034264;28;20690;-61
2021/11/27 09:03:21;;;;;;;1.37;1.10;;;7.60;99.90;;;;;;5034113;28;20283;-61
2021/11/27 09:05:48;;;;;;;1.53;0.90;;;7.70;99.90;;;;;;5034165;28;20226;-61
2021/11/27 09:08:16;;;;;;;2.13;0.87;;;7.80;99.90;;;;;;5034352;28;20246;-60
2021/11/27 09:10:44;;;;;;;1.50;0.90;;;7.90;99.90;;;;;;5034181;28;20209;-61
2021/11/27 09:13:11;;;;;;;4.93;1.70;;;8.10;99.90;;;;;;5033467;28;20237;-61
2021/11/27 09:15:39;;;;;;;1.80;1.10;;;8.40;99.90;;;;;;5034535;28;20213;-61
2021/11/27 09:18:09;;;;;;;2.10;1.23;;;8.70;99.90;;;;;;5034906;28;20213;-62
2021/11/27 09:20:35;;;;;;;1.40;1.03;;;8.90;99.90;;;;;;5034295;28;20203;-61
2021/11/27 09:23:03;;;;;;;3.17;1.23;;;9.20;99.90;;;;;;5033724;28;20226;-60
2021/11/27 09:25:30;;;;;;;1.60;1.17;;;9.20;99.90;;;;;;5033842;28;20230;-60
2021/11/27 09:27:58;;;;;;;3.50;1.80;;;9.10;99.90;;;;;;5033731;28;20264;-60
2021/11/27 09:30:26;;;;;;;2.33;1.67;;;9.10;99.90;;;;;;5033740;28;20288;-60
2021/11/27 09:32:54;;;;;;;15.07;4.40;;;9.00;99.90;;;;;;5033237;28;20609;-60
2021/11/27 09:35:21;;;;;;;32.03;9.47;;;9.10;99.90;;;;;;5033468;28;20209;-61
2021/11/27 09:37:49;;;;;;;10.30;4.13;;;9.00;99.90;;;;;;5033419;28;20222;-62
2021/11/27 09:40:16;;;;;;;4.03;2.20;;;9.20;99.90;;;;;;5032843;28;20206;-60
2021/11/27 09:42:45;;;;;;;2.20;1.13;;;9.30;99.90;;;;;;5033314;28;20226;-61
2021/11/27 09:45:12;;;;;;;1.63;1.03;;;9.40;99.90;;;;;;5033413;28;20226;-61
2021/11/27 09:47:39;;;;;;;2.87;1.23;;;9.50;99.90;;;;;;5033171;28;20670;-60
2021/11/27 09:50:08;;;;;;;12.63;7.33;;;9.60;99.90;;;;;;5033349;28;20294;-61
2021/11/27 09:52:36;;;;;;;5.60;3.40;;;9.80;99.90;;;;;;5032930;28;20230;-60
2021/11/27 09:55:04;;;;;;;2.23;1.83;;;9.90;99.90;;;;;;5033254;28;20689;-62
2021/11/27 09:57:31;;;;;;;12.70;5.20;;;9.90;99.90;;;;;;5033359;28;20236;-60
2021/11/27 09:59:58;;;;;;;2.90;1.13;;;9.90;99.90;;;;;;5033445;28;20206;-61
2021/11/27 10:02:25;;;;;;;6.63;3.40;;;9.80;99.90;;;;;;5032785;28;20260;-60
2021/11/27 10:04:54;;;;;;;2.70;1.67;;;9.90;99.90;;;;;;5033089;28;20202;-61
2021/11/27 10:07:23;;;;;;;1.47;1.07;;;10.00;99.90;;;;;;5032868;28;20211;-61
2021/11/27 10:09:52;;;;;;;1.60;1.17;;;10.10;99.90;;;;;;5032870;28;20678;-60
2021/11/27 10:12:20;;;;;;;2.27;1.03;;;10.20;99.90;;;;;;5032730;28;20237;-61
2021/11/27 10:14:47;;;;;;;1.50;1.40;;;10.30;99.90;;;;;;5032835;28;20213;-62
2021/11/27 10:17:15;;;;;;;1.80;1.10;;;10.30;99.90;;;;;;5032938;28;20214;-60
2021/11/27 10:19:50;;;;;;;2.40;1.40;;;10.30;99.90;;;;;;5032739;28;20268;-60
2021/11/27 10:22:19;;;;;;;2.20;1.30;;;10.40;99.90;;;;;;5032503;28;20666;-60
2021/11/27 10:24:48;;;;;;;2.30;1.20;;;10.50;99.90;;;;;;5032966;28;20621;-60
2021/11/27 10:27:23;;;;;;;3.27;1.20;;;10.50;99.90;;;;;;5032822;28;20249;-60
2021/11/27 10:29:58;;;;;;;2.50;1.30;;;10.60;99.90;;;;;;5032668;28;20205;-61
2021/11/27 10:32:31;;;;;;;2.50;1.70;;;10.60;99.90;;;;;;5032471;28;20637;-62
2021/11/27 10:34:58;;;;;;;1.63;1.20;;;10.70;99.90;;;;;;5032546;28;20766;-60
2021/11/27 10:37:27;;;;;;;1.50;1.17;;;10.70;99.90;;;;;;5032677;28;20206;-61
2021/11/27 10:40:00;;;;;;;1.43;0.90;;;10.80;99.90;;;;;;5033103;28;20229;-61
2021/11/27 10:42:28;;;;;;;2.30;1.50;;;10.80;99.90;;;;;;5032608;28;20226;-61
2021/11/27 10:44:56;;;;;;;2.27;1.40;;;10.90;99.90;;;;;;5032409;28;20678;-62
2021/11/27 10:47:24;;;;;;;2.13;1.77;;;11.10;99.90;;;;;;5032469;28;20280;-62
2021/11/27 10:49:51;;;;;;;1.70;1.07;;;11.30;99.90;;;;;;5032278;28;20210;-60
2021/11/27 10:52:20;;;;;;;1.07;0.67;;;11.40;99.90;;;;;;5032099;28;20670;-61
2021/11/27 10:54:50;;;;;;;2.80;1.27;;;11.30;99.90;;;;;;5032432;28;20214;-60
2021/11/27 10:57:35;;;;;;;1.80;1.20;;;11.30;99.90;;;;;;5032043;28;20206;-60
2021/11/27 11:00:07;;;;;;;1.93;0.90;;;11.40;99.90;;;;;;5032448;28;20662;-61
2021/11/27 11:02:36;;;;;;;2.50;1.70;;;11.30;99.90;;;;;;5031920;28;20229;-60
2021/11/27 11:05:07;;;;;;;2.33;1.00;;;11.20;99.90;;;;;;5031910;28;20210;-60
2021/11/27 11:07:34;;;;;;;1.00;0.70;;;10.90;99.90;;;;;;5032262;28;20680;-61
2021/11/27 11:10:14;;;;;;;1.73;1.03;;;10.70;99.90;;;;;;5032646;28;20206;-61
2021/11/27 11:12:46;;;;;;;3.40;1.47;;;10.60;99.90;;;;;;5032575;28;20238;-61
2021/11/27 11:15:16;;;;;;;1.47;0.90;;;10.60;99.90;;;;;;5032698;28;20234;-61
2021/11/27 11:17:43;;;;;;;2.23;0.80;;;10.40;99.90;;;;;;5032556;28;20217;-61
2021/11/27 11:20:20;;;;;;;1.60;0.90;;;10.30;99.90;;;;;;5032813;28;20666;-61
2021/11/27 11:22:59;;;;;;;2.67;0.90;;;10.20;99.90;;;;;;5032309;28;20232;-61
2021/11/27 11:25:26;;;;;;;2.33;1.00;;;10.20;99.90;;;;;;5032309;28;20236;-61
2021/11/27 11:27:54;;;;;;;2.83;1.40;;;10.30;99.90;;;;;;5032309;28;20206;-61
2021/11/27 11:30:22;;;;;;;1.47;0.60;;;10.40;99.90;;;;;;5032223;28;20254;-60
2021/11/27 11:32:50;;;;;;;2.10;0.80;;;10.40;99.90;;;;;;5031573;28;20225;-60
2021/11/27 11:35:17;;;;;;;2.53;1.13;;;10.40;99.90;;;;;;5032006;28;20673;-60
2021/11/27 11:37:43;;;;;;;3.23;0.80;;;10.40;99.90;;;;;;5032181;28;20214;-59
2021/11/27 11:40:12;;;;;;;3.20;0.77;;;10.20;99.90;;;;;;5031976;28;20209;-60
2021/11/27 11:42:38;;;;;;;3.43;1.80;;;9.90;99.90;;;;;;5031486;28;20234;-60
2021/11/27 11:45:07;;;;;;;3.07;0.70;;;9.70;99.90;;;;;;5031867;28;20213;-60
2021/11/27 11:47:34;;;;;;;1.13;0.67;;;9.60;99.90;;;;;;5032094;28;20241;-60
2021/11/27 11:50:06;;;;;;;1.40;0.70;;;9.50;99.90;;;;;;5031884;28;20214;-60
2021/11/27 11:52:39;;;;;;;1.27;0.80;;;9.60;99.90;;;;;;5031675;28;20231;-61
2021/11/27 11:55:11;;;;;;;1.83;0.80;;;9.50;99.90;;;;;;5031640;28;20679;-60
2021/11/27 11:57:48;;;;;;;1.50;0.93;;;9.50;99.90;;;;;;5031576;28;20290;-61
2021/11/27 12:00:28;;;;;;;1.43;0.67;;;9.60;99.90;;;;;;5031824;28;20225;-60
2021/11/27 12:03:04;;;;;;;3.17;1.63;;;9.60;99.90;;;;;;5034304;28;20226;-60
2021/11/27 12:05:33;;;;;;;1.87;1.10;;;9.70;99.90;;;;;;5035572;28;20202;-60
2021/11/27 12:08:01;;;;;;;0.90;0.80;;;9.80;99.90;;;;;;5035603;28;20206;-60
2021/11/27 12:10:29;;;;;;;1.10;0.80;;;9.70;99.90;;;;;;5035562;28;20214;-60
2021/11/27 12:13:25;;;;;;;0.57;0.33;;;9.60;99.90;;;;;;5035521;28;20230;-60
2021/11/27 12:16:06;;;;;;;0.40;0.40;;;9.40;99.90;;;;;;5035375;28;20201;-60
2021/11/27 12:18:32;;;;;;;1.00;0.50;;;9.10;99.90;;;;;;5035454;28;20202;-59
2021/11/27 12:21:01;;;;;;;1.57;0.90;;;8.60;99.90;;;;;;5035548;28;20209;-61
2021/11/27 12:23:39;;;;;;;4.57;1.90;;;8.30;99.90;;;;;;5035050;28;20227;-60
2021/11/27 12:26:25;;;;;;;0.30;0.30;;;8.10;99.90;;;;;;5035264;28;20229;-60
2021/11/27 12:29:15;;;;;;;0.43;0.30;;;7.80;99.90;;;;;;5034921;28;20213;-60
2021/11/27 12:31:52;;;;;;;2.10;0.50;;;7.60;99.90;;;;;;5035393;28;20592;-62
2021/11/27 12:34:34;;;;;;;1.23;0.60;;;7.50;99.90;;;;;;5031948;28;20460;-60
2021/11/27 12:37:01;;;;;;;9.60;5.27;;;7.60;99.90;;;;;;5035023;28;20405;-63
2021/11/27 12:39:39;;;;;;;3.00;1.40;;;7.60;99.90;;;;;;5034889;28;20628;-60
2021/11/27 12:42:35;;;;;;;2.77;1.90;;;7.50;99.90;;;;;;5034756;28;20206;-61
2021/11/27 12:45:07;;;;;;;1.63;0.60;;;7.70;99.90;;;;;;5032867;28;20242;-61
2021/11/27 12:47:37;;;;;;;0.60;0.30;;;7.90;99.90;;;;;;5034934;28;20324;-61
2021/11/27 12:50:19;;;;;;;1.20;0.50;;;8.10;99.90;;;;;;5034776;28;20207;-61
2021/11/27 12:52:47;;;;;;;2.57;1.20;;;8.20;99.90;;;;;;5034818;28;20226;-60
2021/11/27 12:55:36;;;;;;;1.27;0.60;;;8.40;99.90;;;;;;5035210;28;20210;-60
2021/11/27 12:58:25;;;;;;;1.07;0.50;;;8.50;99.90;;;;;;5032203;28;20583;-61
2021/11/27 13:00:51;;;;;;;1.03;0.40;;;8.50;99.90;;;;;;5035408;28;20206;-60
2021/11/27 13:03:19;;;;;;;1.30;0.23;;;8.60;99.90;;;;;;5034122;28;20706;-60